Cat Express — WDD7921 — position and weather

sailwx.info

Track history (hours):
 
Tides and Currents Weather Stations Pressure Air Temp Water Temp Dewpoint Dewpoint Depression Visibility Wind Speed Wind Dir Waves Ship Positions

Cat Express

Owner: Catalina Channel Express, San Pedro, CA. More information available from US FCC via Universal Licensing System and Coast Guard Vessel Documentation Center.

Last reported at 2018-Jul-20 04:47 UTC. Time now 2018-Jul-20 06:45 UTC.
Position N 33°45' W 118°16'.

Length 29 m.

Type: Passenger vessel. MMSI: 367192970.

Date/timePositionNaut miles runAvg speedWind from/ knotsBaromVisibWave heightAir tempDewpointWater temp
2018-Jul-20 04:47N 33°45' W 118°16'0 0.0
2018-Jul-20 04:30N 33°45' W 118°16'0 0.0
2018-Jul-20 04:00N 33°45' W 118°16'0 0.0
2018-Jul-20 03:30N 33°45' W 118°16'2 4.0
2018-Jul-20 03:00N 33°43' W 118°16'1223.1
2018-Jul-20 02:30N 33°32' W 118°17'1121.5
2018-Jul-20 02:00N 33°21' W 118°19'0 0.0
2018-Jul-20 01:30N 33°21' W 118°19'713.2
2018-Jul-20 01:00N 33°27' W 118°18'1325.6
2018-Jul-20 00:30N 33°40' W 118°15'611.1
2018-Jul-20 00:01N 33°45' W 118°16'0 0.0
2018-Jul-19 23:31N 33°45' W 118°16'2 3.9
2018-Jul-19 23:00N 33°43' W 118°16'1223.7
2018-Jul-19 22:30N 33°31' W 118°17'1121.3
2018-Jul-19 22:00N 33°21' W 118°19'511.0
2018-Jul-19 21:31N 33°25' W 118°23'6 7.7
2018-Jul-19 20:44N 33°27' W 118°30'520.8
2018-Jul-19 20:31N 33°31' W 118°26'1121.9
2018-Jul-19 20:01N 33°39' W 118°18'611.5
2018-Jul-19 19:31N 33°45' W 118°16'0 0.0
2018-Jul-19 19:00N 33°45' W 118°16'2 3.6
2018-Jul-19 18:31N 33°43' W 118°16'1121.5
2018-Jul-19 18:00N 33°34' W 118°23'910.5
2018-Jul-19 17:10N 33°27' W 118°29'320.5
2018-Jul-19 17:01N 33°27' W 118°25'812.9
2018-Jul-19 16:24N 33°21' W 118°19'820.8
2018-Jul-19 16:00N 33°29' W 118°18'1223.9
2018-Jul-19 15:31N 33°41' W 118°15'4 8.8
2018-Jul-19 15:00N 33°45' W 118°16'0 0.0
2018-Jul-19 14:00N 33°45' W 118°16'0 0.0
2018-Jul-19 13:31N 33°45' W 118°16'0 0.0
2018-Jul-19 13:00N 33°45' W 118°16'0 0.0
2018-Jul-19 12:30N 33°45' W 118°16'0 0.0
2018-Jul-19 12:01N 33°45' W 118°16'0 0.0
2018-Jul-19 03:18N 33°45' W 118°17'2 6.7
2018-Jul-19 03:01N 33°43' W 118°15'1223.1
2018-Jul-19 02:30N 33°31' W 118°17'1121.8
2018-Jul-19 02:00N 33°21' W 118°19'0 0.0
2018-Jul-19 01:30N 33°21' W 118°19'815.6
2018-Jul-19 01:00N 33°28' W 118°18'1325.3
2018-Jul-19 00:30N 33°41' W 118°15'4 8.4
2018-Jul-19 00:00N 33°45' W 118°16'0 0.0
2018-Jul-18 23:30N 33°45' W 118°16'2 4.0
2018-Jul-18 23:01N 33°43' W 118°16'1223.5
2018-Jul-18 22:30N 33°31' W 118°17'1121.5
2018-Jul-18 22:00N 33°21' W 118°19'2 4.9
2018-Jul-18 21:30N 33°23' W 118°20'910.4
2018-Jul-18 20:39N 33°27' W 118°30'321.8
2018-Jul-18 20:31N 33°29' W 118°27'1325.1
2018-Jul-18 20:01N 33°39' W 118°18'611.9
2018-Jul-18 19:30N 33°45' W 118°16'0 0.1
2018-Jul-18 19:00N 33°45' W 118°16'2 4.0
2018-Jul-18 18:30N 33°43' W 118°16'1121.8
2018-Jul-18 18:01N 33°34' W 118°23'9 9.8
2018-Jul-18 17:05N 33°27' W 118°30'116.4
2018-Jul-18 17:01N 33°27' W 118°28'1019.5
2018-Jul-18 16:30N 33°21' W 118°19'713.4
2018-Jul-18 15:59N 33°28' W 118°18'1224.1
2018-Jul-18 15:30N 33°39' W 118°15'612.0
2018-Jul-18 15:01N 33°45' W 118°16'0 0.0
2018-Jul-18 14:31N 33°45' W 118°16'0 0.0
2018-Jul-18 13:30N 33°45' W 118°16'0 0.0
2018-Jul-18 13:01N 33°45' W 118°16'0 0.0
2018-Jul-18 12:31N 33°45' W 118°16'0 0.0
2018-Jul-18 12:01N 33°45' W 118°16'0 0.0
2018-Jul-17 04:51N 33°45' W 118°16'0 0.0
2018-Jul-17 04:30N 33°45' W 118°16'0 0.0
2018-Jul-17 04:00N 33°45' W 118°16'0 0.0
2018-Jul-17 03:30N 33°45' W 118°16'3 5.1
2018-Jul-17 03:01N 33°43' W 118°15'1122.9
2018-Jul-17 02:31N 33°31' W 118°17'1121.7
2018-Jul-17 02:00N 33°21' W 118°19'0 0.1
2018-Jul-17 01:30N 33°21' W 118°19'816.4
2018-Jul-17 01:00N 33°29' W 118°18'1224.7
2018-Jul-17 00:31N 33°41' W 118°15'4 4.2
2018-Jul-16 23:30N 33°45' W 118°16'2 3.5
2018-Jul-16 23:00N 33°43' W 118°16'1122.7
2018-Jul-16 22:31N 33°32' W 118°16'1122.8
2018-Jul-16 22:00N 33°21' W 118°19'3 5.1
2018-Jul-16 21:30N 33°23' W 118°20'910.5
2018-Jul-16 20:40N 33°27' W 118°30'322.9
2018-Jul-16 20:31N 33°30' W 118°27'1224.7
2018-Jul-16 20:01N 33°39' W 118°18'611.4
2018-Jul-16 19:30N 33°45' W 118°16'0 0.0
2018-Jul-16 19:00N 33°45' W 118°16'1 2.2
2018-Jul-16 18:30N 33°44' W 118°16'918.8
2018-Jul-16 18:00N 33°35' W 118°22'10 9.0
2018-Jul-16 16:55N 33°27' W 118°27'920.6
2018-Jul-16 16:29N 33°21' W 118°19'612.6
2018-Jul-16 16:01N 33°27' W 118°18'1224.6
2018-Jul-16 15:30N 33°39' W 118°16'612.3
2018-Jul-16 15:01N 33°45' W 118°16'0 0.0
2018-Jul-16 14:31N 33°45' W 118°16'0 0.0
2018-Jul-16 14:01N 33°45' W 118°16'0 0.0
2018-Jul-16 13:31N 33°45' W 118°16'0 0.0
2018-Jul-16 13:01N 33°45' W 118°16'0 0.0
2018-Jul-16 12:30N 33°45' W 118°16'0 0.0
2018-Jul-16 04:09N 33°45' W 118°16'0 0.0
2018-Jul-16 04:00N 33°45' W 118°16'0 0.0
2018-Jul-16 03:30N 33°45' W 118°16'3 5.5
2018-Jul-16 03:01N 33°43' W 118°15'1223.4
2018-Jul-16 02:30N 33°31' W 118°17'1020.9
2018-Jul-16 02:00N 33°21' W 118°19'0 0.0
2018-Jul-16 01:30N 33°21' W 118°19'714.6
2018-Jul-16 01:00N 33°28' W 118°18'1325.8
2018-Jul-16 00:31N 33°41' W 118°15'4 8.9
2018-Jul-16 00:00N 33°45' W 118°16'0 0.0
2018-Jul-15 23:30N 33°45' W 118°16'0 0.0
2018-Jul-15 23:00N 33°45' W 118°16'1 2.1
2018-Jul-15 22:30N 33°44' W 118°16'816.7
2018-Jul-15 22:01N 33°36' W 118°20'1224.1
2018-Jul-15 21:30N 33°27' W 118°30'0 0.1
2018-Jul-15 20:36N 33°27' W 118°30'220.2
2018-Jul-15 20:30N 33°29' W 118°29'1225.2
2018-Jul-15 20:01N 33°38' W 118°19'713.6
2018-Jul-15 19:30N 33°45' W 118°17'0 0.5
2018-Jul-15 19:00N 33°45' W 118°16'2 3.1
2018-Jul-15 18:30N 33°43' W 118°16'1223.4
2018-Jul-15 18:00N 33°32' W 118°17'1121.9
2018-Jul-15 17:30N 33°21' W 118°19'1 1.3
2018-Jul-15 17:01N 33°21' W 118°19'1223.9
2018-Jul-15 16:31N 33°33' W 118°17'1020.5
2018-Jul-15 16:01N 33°43' W 118°16'2 3.3
2018-Jul-15 15:30N 33°45' W 118°16'0 0.0
2018-Jul-15 15:00N 33°45' W 118°16'0 0.0
2018-Jul-15 14:31N 33°45' W 118°16'0 0.0
2018-Jul-15 14:00N 33°45' W 118°16'0 0.0
2018-Jul-15 13:30N 33°45' W 118°16'0 0.0
2018-Jul-15 13:00N 33°45' W 118°16'0 0.0
2018-Jul-15 12:30N 33°45' W 118°16'0 0.0
2018-Jul-15 12:00N 33°45' W 118°16'0 0.0
2018-Jul-15 11:31N 33°45' W 118°16'0 0.0
2018-Jul-15 06:58N 33°45' W 118°16'2 5.4
2018-Jul-15 06:31N 33°43' W 118°15'1223.2
2018-Jul-15 06:00N 33°31' W 118°17'1121.2
2018-Jul-15 05:30N 33°21' W 118°19'1 1.8
2018-Jul-15 05:00N 33°22' W 118°19'1325.1
2018-Jul-15 04:31N 33°34' W 118°17'1019.7
2018-Jul-15 04:00N 33°44' W 118°16'1 2.1
2018-Jul-15 03:30N 33°45' W 118°16'510.0
2018-Jul-15 03:00N 33°40' W 118°14'1223.2
2018-Jul-15 02:31N 33°29' W 118°17'917.0
2018-Jul-15 02:00N 33°21' W 118°19'0 0.0
2018-Jul-15 01:30N 33°21' W 118°19'713.8
2018-Jul-15 01:00N 33°27' W 118°17'1325.1
2018-Jul-15 00:31N 33°40' W 118°15'510.7
2018-Jul-15 00:01N 33°45' W 118°16'0 0.0
2018-Jul-14 23:31N 33°45' W 118°16'2 4.5
2018-Jul-14 23:01N 33°43' W 118°15'1123.0
2018-Jul-14 22:31N 33°31' W 118°17'1121.8
2018-Jul-14 22:00N 33°21' W 118°19'2 4.0
2018-Jul-14 21:31N 33°23' W 118°20'910.5
2018-Jul-14 20:40N 33°27' W 118°30'319.5
2018-Jul-14 20:30N 33°29' W 118°28'1224.3
2018-Jul-14 20:00N 33°39' W 118°18'713.1
2018-Jul-14 19:31N 33°45' W 118°16'0 0.0
2018-Jul-14 19:00N 33°45' W 118°16'1 2.8
2018-Jul-14 18:31N 33°44' W 118°16'1121.8
2018-Jul-14 18:01N 33°33' W 118°16'1224.3
2018-Jul-14 17:31N 33°21' W 118°19'0 0.1
2018-Jul-14 17:01N 33°21' W 118°19'1122.1
2018-Jul-14 16:31N 33°32' W 118°18'1122.6
2018-Jul-14 16:00N 33°43' W 118°16'2 4.1
2018-Jul-14 15:30N 33°45' W 118°16'0 0.0
2018-Jul-14 15:00N 33°45' W 118°16'0 0.0
2018-Jul-14 14:30N 33°45' W 118°16'0 0.0
2018-Jul-14 13:30N 33°45' W 118°16'0 0.0
2018-Jul-14 13:01N 33°45' W 118°16'0 0.0
2018-Jul-14 12:30N 33°45' W 118°16'0 0.0
2018-Jul-14 12:00N 33°45' W 118°16'0 0.0
2018-Jul-14 07:12N 33°45' W 118°16'0 0.0
2018-Jul-14 07:00N 33°45' W 118°16'0 0.0
2018-Jul-14 06:30N 33°45' W 118°16'0 0.2
2018-Jul-14 06:00N 33°45' W 118°16'713.9
2018-Jul-14 05:30N 33°38' W 118°15'1224.5
2018-Jul-14 05:00N 33°26' W 118°18'5 8.9
2018-Jul-14 04:25N 33°21' W 118°19'820.4
2018-Jul-14 04:01N 33°27' W 118°26'3 5.0
2018-Jul-14 03:23N 33°27' W 118°30'922.7
2018-Jul-14 03:00N 33°34' W 118°23'1122.3
2018-Jul-14 02:30N 33°43' W 118°16'2 3.5
2018-Jul-14 02:00N 33°45' W 118°16'0 0.0
2018-Jul-14 01:30N 33°45' W 118°16'0 0.0
2018-Jul-14 01:00N 33°45' W 118°16'1 1.2
2018-Jul-14 00:30N 33°44' W 118°17'815.7
2018-Jul-14 00:00N 33°37' W 118°20'1325.2
2018-Jul-13 23:31N 33°27' W 118°29'0 0.5
2018-Jul-13 22:46N 33°27' W 118°30'723.9
2018-Jul-13 22:27N 33°33' W 118°24'1124.2
2018-Jul-13 22:00N 33°41' W 118°16'4 7.4
2018-Jul-13 21:30N 33°45' W 118°16'0 0.0
2018-Jul-13 21:00N 33°45' W 118°16'0 0.0
2018-Jul-13 20:30N 33°45' W 118°16'2 3.1
2018-Jul-13 20:01N 33°43' W 118°16'1020.9
2018-Jul-13 19:30N 33°34' W 118°22'9 7.1
2018-Jul-13 18:13N 33°27' W 118°30'524.2
2018-Jul-13 18:00N 33°31' W 118°25'1224.0
2018-Jul-13 17:31N 33°41' W 118°16'4 8.7
2018-Jul-13 17:00N 33°45' W 118°16'0 0.0
2018-Jul-13 16:30N 33°45' W 118°16'0 0.0
2018-Jul-13 16:00N 33°45' W 118°16'0 0.0
2018-Jul-13 15:30N 33°45' W 118°16'0 0.0
2018-Jul-13 15:00N 33°45' W 118°16'0 0.0
2018-Jul-13 14:30N 33°45' W 118°16'0 0.0
2018-Jul-13 13:30N 33°45' W 118°16'0 0.0
2018-Jul-13 13:00N 33°45' W 118°16'0 0.0
2018-Jul-13 03:31N 33°45' W 118°16'0 0.0
2018-Jul-13 03:30N 33°45' W 118°16'2 4.5
2018-Jul-13 03:00N 33°43' W 118°15'1223.1
2018-Jul-13 02:30N 33°31' W 118°17'1121.5
2018-Jul-13 02:00N 33°21' W 118°19'0 0.1
2018-Jul-13 01:28N 33°21' W 118°19'612.8
2018-Jul-13 01:00N 33°27' W 118°19'1225.6
2018-Jul-13 00:30N 33°39' W 118°15'612.0
2018-Jul-13 00:00N 33°45' W 118°16'0 0.0
2018-Jul-12 23:31N 33°45' W 118°16'2 3.1
2018-Jul-12 23:01N 33°43' W 118°16'1122.3
2018-Jul-12 22:31N 33°32' W 118°16'1223.6
2018-Jul-12 22:01N 33°21' W 118°19'1 3.0
2018-Jul-12 21:31N 33°22' W 118°20'910.7
2018-Jul-12 20:39N 33°27' W 118°30'218.0
2018-Jul-12 20:31N 33°29' W 118°28'1224.3
2018-Jul-12 20:01N 33°38' W 118°19'713.8
2018-Jul-12 19:30N 33°45' W 118°17'0 0.3
2018-Jul-12 19:00N 33°45' W 118°16'0 0.0
2018-Jul-12 18:30N 33°45' W 118°16'0 0.0
2018-Jul-12 18:00N 33°45' W 118°16'1 2.7
2018-Jul-12 17:30N 33°44' W 118°16'1121.9
2018-Jul-12 17:00N 33°33' W 118°16'1224.3
2018-Jul-12 16:30N 33°21' W 118°19'5 9.2
2018-Jul-12 16:01N 33°25' W 118°18'1224.3
2018-Jul-12 15:30N 33°37' W 118°16'815.0
2018-Jul-12 15:00N 33°45' W 118°17'0 0.5
2018-Jul-12 14:30N 33°45' W 118°16'0 0.0
2018-Jul-12 14:01N 33°45' W 118°16'0 0.0
2018-Jul-12 13:31N 33°45' W 118°16'0 0.0
2018-Jul-12 13:00N 33°45' W 118°16'0 0.0
2018-Jul-12 12:30N 33°45' W 118°16'0 0.0
2018-Jul-12 12:01N 33°45' W 118°16'0 0.0
2018-Jul-12 11:30N 33°45' W 118°16'0 0.0
2018-Jul-11 19:59N 33°45' W 118°16'0 0.0
2018-Jul-11 19:30N 33°45' W 118°16'0 0.0
2018-Jul-11 19:00N 33°45' W 118°16'0 0.0
2018-Jul-11 18:30N 33°45' W 118°16'0 0.0
2018-Jul-11 18:00N 33°45' W 118°16'0 0.0
2018-Jul-11 17:30N 33°45' W 118°16'0 0.0
2018-Jul-11 17:00N 33°45' W 118°16'0 0.0
2018-Jul-11 16:30N 33°45' W 118°16'0 0.0
2018-Jul-11 04:30N 33°45' W 118°16'0 0.0
2018-Jul-11 04:00N 33°45' W 118°16'0 0.0
2018-Jul-11 03:30N 33°45' W 118°16'2 4.2
2018-Jul-11 03:01N 33°43' W 118°16'1223.7
2018-Jul-11 02:31N 33°31' W 118°17'1121.3
2018-Jul-11 02:01N 33°21' W 118°19'0 0.0
2018-Jul-11 01:31N 33°21' W 118°19'713.4
2018-Jul-11 01:01N 33°27' W 118°18'1325.9
2018-Jul-11 00:30N 33°40' W 118°15'5 9.7
2018-Jul-11 00:00N 33°45' W 118°16'0 0.0
2018-Jul-10 23:30N 33°45' W 118°16'2 3.5
2018-Jul-10 23:01N 33°43' W 118°16'1223.0
2018-Jul-10 22:30N 33°32' W 118°17'1121.9
2018-Jul-10 22:00N 33°21' W 118°19'2 3.5
2018-Jul-10 21:31N 33°22' W 118°20'918.0
2018-Jul-10 20:59N 33°27' W 118°30'4 7.3
2018-Jul-10 20:31N 33°29' W 118°27'1325.3
2018-Jul-10 20:01N 33°39' W 118°18'611.5
2018-Jul-10 19:30N 33°45' W 118°16'0 0.0
2018-Jul-10 19:01N 33°45' W 118°16'1 2.5
2018-Jul-10 18:30N 33°44' W 118°16'1019.8
2018-Jul-10 18:00N 33°35' W 118°22'1010.4
2018-Jul-10 17:02N 33°27' W 118°29'121.0
2018-Jul-10 17:00N 33°27' W 118°28'1020.0
2018-Jul-10 16:30N 33°21' W 118°19'612.3
2018-Jul-10 16:00N 33°27' W 118°18'1224.6
2018-Jul-10 15:31N 33°39' W 118°15'612.4
2018-Jul-10 15:00N 33°45' W 118°16'0 0.0
2018-Jul-10 14:30N 33°45' W 118°16'0 0.0
2018-Jul-10 14:00N 33°45' W 118°16'0 0.0
2018-Jul-10 13:30N 33°45' W 118°16'0 0.0
2018-Jul-10 13:00N 33°45' W 118°16'0 0.0
2018-Jul-10 12:30N 33°45' W 118°16'0 0.0
2018-Jul-10 12:00N 33°45' W 118°16'  
Track history (hours):
 
Tides and Currents Weather Stations Pressure Air Temp Water Temp Dewpoint Dewpoint Depression Visibility Wind Speed Wind Dir Waves Ship Positions

Cat Express

Owner: Catalina Channel Express, San Pedro, CA. More information available from US FCC via Universal Licensing System and Coast Guard Vessel Documentation Center.

Last reported at 2018-Jul-20 04:47 UTC. Time now 2018-Jul-20 06:45 UTC.
Position N 33°45' W 118°16'.

Length 29 m.

Type: Passenger vessel. MMSI: 367192970.

Date/timePositionNaut miles runAvg speedWind from/ knotsBaromVisibWave heightAir tempDewpointWater temp
2018-Jul-20 04:47N 33°45' W 118°16'0 0.0
2018-Jul-20 04:30N 33°45' W 118°16'0 0.0
2018-Jul-20 04:00N 33°45' W 118°16'0 0.0
2018-Jul-20 03:30N 33°45' W 118°16'2 4.0
2018-Jul-20 03:00N 33°43' W 118°16'1223.1
2018-Jul-20 02:30N 33°32' W 118°17'1121.5
2018-Jul-20 02:00N 33°21' W 118°19'0 0.0
2018-Jul-20 01:30N 33°21' W 118°19'713.2
2018-Jul-20 01:00N 33°27' W 118°18'1325.6
2018-Jul-20 00:30N 33°40' W 118°15'611.1
2018-Jul-20 00:01N 33°45' W 118°16'0 0.0
2018-Jul-19 23:31N 33°45' W 118°16'2 3.9
2018-Jul-19 23:00N 33°43' W 118°16'1223.7
2018-Jul-19 22:30N 33°31' W 118°17'1121.3
2018-Jul-19 22:00N 33°21' W 118°19'511.0
2018-Jul-19 21:31N 33°25' W 118°23'6 7.7
2018-Jul-19 20:44N 33°27' W 118°30'520.8
2018-Jul-19 20:31N 33°31' W 118°26'1121.9
2018-Jul-19 20:01N 33°39' W 118°18'611.5
2018-Jul-19 19:31N 33°45' W 118°16'0 0.0
2018-Jul-19 19:00N 33°45' W 118°16'2 3.6
2018-Jul-19 18:31N 33°43' W 118°16'1121.5
2018-Jul-19 18:00N 33°34' W 118°23'910.5
2018-Jul-19 17:10N 33°27' W 118°29'320.5
2018-Jul-19 17:01N 33°27' W 118°25'812.9
2018-Jul-19 16:24N 33°21' W 118°19'820.8
2018-Jul-19 16:00N 33°29' W 118°18'1223.9
2018-Jul-19 15:31N 33°41' W 118°15'4 8.8
2018-Jul-19 15:00N 33°45' W 118°16'0 0.0
2018-Jul-19 14:00N 33°45' W 118°16'0 0.0
2018-Jul-19 13:31N 33°45' W 118°16'0 0.0
2018-Jul-19 13:00N 33°45' W 118°16'0 0.0
2018-Jul-19 12:30N 33°45' W 118°16'0 0.0
2018-Jul-19 12:01N 33°45' W 118°16'0 0.0
2018-Jul-19 03:18N 33°45' W 118°17'2 6.7
2018-Jul-19 03:01N 33°43' W 118°15'1223.1
2018-Jul-19 02:30N 33°31' W 118°17'1121.8
2018-Jul-19 02:00N 33°21' W 118°19'0 0.0
2018-Jul-19 01:30N 33°21' W 118°19'815.6
2018-Jul-19 01:00N 33°28' W 118°18'1325.3
2018-Jul-19 00:30N 33°41' W 118°15'4 8.4
2018-Jul-19 00:00N 33°45' W 118°16'0 0.0
2018-Jul-18 23:30N 33°45' W 118°16'2 4.0
2018-Jul-18 23:01N 33°43' W 118°16'1223.5
2018-Jul-18 22:30N 33°31' W 118°17'1121.5
2018-Jul-18 22:00N 33°21' W 118°19'2 4.9
2018-Jul-18 21:30N 33°23' W 118°20'910.4
2018-Jul-18 20:39N 33°27' W 118°30'321.8
2018-Jul-18 20:31N 33°29' W 118°27'1325.1
2018-Jul-18 20:01N 33°39' W 118°18'611.9
2018-Jul-18 19:30N 33°45' W 118°16'0 0.1
2018-Jul-18 19:00N 33°45' W 118°16'2 4.0
2018-Jul-18 18:30N 33°43' W 118°16'1121.8
2018-Jul-18 18:01N 33°34' W 118°23'9 9.8
2018-Jul-18 17:05N 33°27' W 118°30'116.4
2018-Jul-18 17:01N 33°27' W 118°28'1019.5
2018-Jul-18 16:30N 33°21' W 118°19'713.4
2018-Jul-18 15:59N 33°28' W 118°18'1224.1
2018-Jul-18 15:30N 33°39' W 118°15'612.0
2018-Jul-18 15:01N 33°45' W 118°16'0 0.0
2018-Jul-18 14:31N 33°45' W 118°16'0 0.0
2018-Jul-18 13:30N 33°45' W 118°16'0 0.0
2018-Jul-18 13:01N 33°45' W 118°16'0 0.0
2018-Jul-18 12:31N 33°45' W 118°16'0 0.0
2018-Jul-18 12:01N 33°45' W 118°16'0 0.0
2018-Jul-17 04:51N 33°45' W 118°16'0 0.0
2018-Jul-17 04:30N 33°45' W 118°16'0 0.0
2018-Jul-17 04:00N 33°45' W 118°16'0 0.0
2018-Jul-17 03:30N 33°45' W 118°16'3 5.1
2018-Jul-17 03:01N 33°43' W 118°15'1122.9
2018-Jul-17 02:31N 33°31' W 118°17'1121.7
2018-Jul-17 02:00N 33°21' W 118°19'0 0.1
2018-Jul-17 01:30N 33°21' W 118°19'816.4
2018-Jul-17 01:00N 33°29' W 118°18'1224.7
2018-Jul-17 00:31N 33°41' W 118°15'4 4.2
2018-Jul-16 23:30N 33°45' W 118°16'2 3.5
2018-Jul-16 23:00N 33°43' W 118°16'1122.7
2018-Jul-16 22:31N 33°32' W 118°16'1122.8
2018-Jul-16 22:00N 33°21' W 118°19'3 5.1
2018-Jul-16 21:30N 33°23' W 118°20'910.5
2018-Jul-16 20:40N 33°27' W 118°30'322.9
2018-Jul-16 20:31N 33°30' W 118°27'1224.7
2018-Jul-16 20:01N 33°39' W 118°18'611.4
2018-Jul-16 19:30N 33°45' W 118°16'0 0.0
2018-Jul-16 19:00N 33°45' W 118°16'1 2.2
2018-Jul-16 18:30N 33°44' W 118°16'918.8
2018-Jul-16 18:00N 33°35' W 118°22'10 9.0
2018-Jul-16 16:55N 33°27' W 118°27'920.6
2018-Jul-16 16:29N 33°21' W 118°19'612.6
2018-Jul-16 16:01N 33°27' W 118°18'1224.6
2018-Jul-16 15:30N 33°39' W 118°16'612.3
2018-Jul-16 15:01N 33°45' W 118°16'0 0.0
2018-Jul-16 14:31N 33°45' W 118°16'0 0.0
2018-Jul-16 14:01N 33°45' W 118°16'0 0.0
2018-Jul-16 13:31N 33°45' W 118°16'0 0.0
2018-Jul-16 13:01N 33°45' W 118°16'0 0.0
2018-Jul-16 12:30N 33°45' W 118°16'0 0.0
2018-Jul-16 04:09N 33°45' W 118°16'0 0.0
2018-Jul-16 04:00N 33°45' W 118°16'0 0.0
2018-Jul-16 03:30N 33°45' W 118°16'3 5.5
2018-Jul-16 03:01N 33°43' W 118°15'1223.4
2018-Jul-16 02:30N 33°31' W 118°17'1020.9
2018-Jul-16 02:00N 33°21' W 118°19'0 0.0
2018-Jul-16 01:30N 33°21' W 118°19'714.6
2018-Jul-16 01:00N 33°28' W 118°18'1325.8
2018-Jul-16 00:31N 33°41' W 118°15'4 8.9
2018-Jul-16 00:00N 33°45' W 118°16'0 0.0
2018-Jul-15 23:30N 33°45' W 118°16'0 0.0
2018-Jul-15 23:00N 33°45' W 118°16'1 2.1
2018-Jul-15 22:30N 33°44' W 118°16'816.7
2018-Jul-15 22:01N 33°36' W 118°20'1224.1
2018-Jul-15 21:30N 33°27' W 118°30'0 0.1
2018-Jul-15 20:36N 33°27' W 118°30'220.2
2018-Jul-15 20:30N 33°29' W 118°29'1225.2
2018-Jul-15 20:01N 33°38' W 118°19'713.6
2018-Jul-15 19:30N 33°45' W 118°17'0 0.5
2018-Jul-15 19:00N 33°45' W 118°16'2 3.1
2018-Jul-15 18:30N 33°43' W 118°16'1223.4
2018-Jul-15 18:00N 33°32' W 118°17'1121.9
2018-Jul-15 17:30N 33°21' W 118°19'1 1.3
2018-Jul-15 17:01N 33°21' W 118°19'1223.9
2018-Jul-15 16:31N 33°33' W 118°17'1020.5
2018-Jul-15 16:01N 33°43' W 118°16'2 3.3
2018-Jul-15 15:30N 33°45' W 118°16'0 0.0
2018-Jul-15 15:00N 33°45' W 118°16'0 0.0
2018-Jul-15 14:31N 33°45' W 118°16'0 0.0
2018-Jul-15 14:00N 33°45' W 118°16'0 0.0
2018-Jul-15 13:30N 33°45' W 118°16'0 0.0
2018-Jul-15 13:00N 33°45' W 118°16'0 0.0
2018-Jul-15 12:30N 33°45' W 118°16'0 0.0
2018-Jul-15 12:00N 33°45' W 118°16'0 0.0
2018-Jul-15 11:31N 33°45' W 118°16'0 0.0
2018-Jul-15 06:58N 33°45' W 118°16'2 5.4
2018-Jul-15 06:31N 33°43' W 118°15'1223.2
2018-Jul-15 06:00N 33°31' W 118°17'1121.2
2018-Jul-15 05:30N 33°21' W 118°19'1 1.8
2018-Jul-15 05:00N 33°22' W 118°19'1325.1
2018-Jul-15 04:31N 33°34' W 118°17'1019.7
2018-Jul-15 04:00N 33°44' W 118°16'1 2.1
2018-Jul-15 03:30N 33°45' W 118°16'510.0
2018-Jul-15 03:00N 33°40' W 118°14'1223.2
2018-Jul-15 02:31N 33°29' W 118°17'917.0
2018-Jul-15 02:00N 33°21' W 118°19'0 0.0
2018-Jul-15 01:30N 33°21' W 118°19'713.8
2018-Jul-15 01:00N 33°27' W 118°17'1325.1
2018-Jul-15 00:31N 33°40' W 118°15'510.7
2018-Jul-15 00:01N 33°45' W 118°16'0 0.0
2018-Jul-14 23:31N 33°45' W 118°16'2 4.5
2018-Jul-14 23:01N 33°43' W 118°15'1123.0
2018-Jul-14 22:31N 33°31' W 118°17'1121.8
2018-Jul-14 22:00N 33°21' W 118°19'2 4.0
2018-Jul-14 21:31N 33°23' W 118°20'910.5
2018-Jul-14 20:40N 33°27' W 118°30'319.5
2018-Jul-14 20:30N 33°29' W 118°28'1224.3
2018-Jul-14 20:00N 33°39' W 118°18'713.1
2018-Jul-14 19:31N 33°45' W 118°16'0 0.0
2018-Jul-14 19:00N 33°45' W 118°16'1 2.8
2018-Jul-14 18:31N 33°44' W 118°16'1121.8
2018-Jul-14 18:01N 33°33' W 118°16'1224.3
2018-Jul-14 17:31N 33°21' W 118°19'0 0.1
2018-Jul-14 17:01N 33°21' W 118°19'1122.1
2018-Jul-14 16:31N 33°32' W 118°18'1122.6
2018-Jul-14 16:00N 33°43' W 118°16'2 4.1
2018-Jul-14 15:30N 33°45' W 118°16'0 0.0
2018-Jul-14 15:00N 33°45' W 118°16'0 0.0
2018-Jul-14 14:30N 33°45' W 118°16'0 0.0
2018-Jul-14 13:30N 33°45' W 118°16'0 0.0
2018-Jul-14 13:01N 33°45' W 118°16'0 0.0
2018-Jul-14 12:30N 33°45' W 118°16'0 0.0
2018-Jul-14 12:00N 33°45' W 118°16'0 0.0
2018-Jul-14 07:12N 33°45' W 118°16'0 0.0
2018-Jul-14 07:00N 33°45' W 118°16'0 0.0
2018-Jul-14 06:30N 33°45' W 118°16'0 0.2
2018-Jul-14 06:00N 33°45' W 118°16'713.9
2018-Jul-14 05:30N 33°38' W 118°15'1224.5
2018-Jul-14 05:00N 33°26' W 118°18'5 8.9
2018-Jul-14 04:25N 33°21' W 118°19'820.4
2018-Jul-14 04:01N 33°27' W 118°26'3 5.0
2018-Jul-14 03:23N 33°27' W 118°30'922.7
2018-Jul-14 03:00N 33°34' W 118°23'1122.3
2018-Jul-14 02:30N 33°43' W 118°16'2 3.5
2018-Jul-14 02:00N 33°45' W 118°16'0 0.0
2018-Jul-14 01:30N 33°45' W 118°16'0 0.0
2018-Jul-14 01:00N 33°45' W 118°16'1 1.2
2018-Jul-14 00:30N 33°44' W 118°17'815.7
2018-Jul-14 00:00N 33°37' W 118°20'1325.2
2018-Jul-13 23:31N 33°27' W 118°29'0 0.5
2018-Jul-13 22:46N 33°27' W 118°30'723.9
2018-Jul-13 22:27N 33°33' W 118°24'1124.2
2018-Jul-13 22:00N 33°41' W 118°16'4 7.4
2018-Jul-13 21:30N 33°45' W 118°16'0 0.0
2018-Jul-13 21:00N 33°45' W 118°16'0 0.0
2018-Jul-13 20:30N 33°45' W 118°16'2 3.1
2018-Jul-13 20:01N 33°43' W 118°16'1020.9
2018-Jul-13 19:30N 33°34' W 118°22'9 7.1
2018-Jul-13 18:13N 33°27' W 118°30'524.2
2018-Jul-13 18:00N 33°31' W 118°25'1224.0
2018-Jul-13 17:31N 33°41' W 118°16'4 8.7
2018-Jul-13 17:00N 33°45' W 118°16'0 0.0
2018-Jul-13 16:30N 33°45' W 118°16'0 0.0
2018-Jul-13 16:00N 33°45' W 118°16'0 0.0
2018-Jul-13 15:30N 33°45' W 118°16'0 0.0
2018-Jul-13 15:00N 33°45' W 118°16'0 0.0
2018-Jul-13 14:30N 33°45' W 118°16'0 0.0
2018-Jul-13 13:30N 33°45' W 118°16'0 0.0
2018-Jul-13 13:00N 33°45' W 118°16'0 0.0
2018-Jul-13 03:31N 33°45' W 118°16'0 0.0
2018-Jul-13 03:30N 33°45' W 118°16'2 4.5
2018-Jul-13 03:00N 33°43' W 118°15'1223.1
2018-Jul-13 02:30N 33°31' W 118°17'1121.5
2018-Jul-13 02:00N 33°21' W 118°19'0 0.1
2018-Jul-13 01:28N 33°21' W 118°19'612.8
2018-Jul-13 01:00N 33°27' W 118°19'1225.6
2018-Jul-13 00:30N 33°39' W 118°15'612.0
2018-Jul-13 00:00N 33°45' W 118°16'0 0.0
2018-Jul-12 23:31N 33°45' W 118°16'2 3.1
2018-Jul-12 23:01N 33°43' W 118°16'1122.3
2018-Jul-12 22:31N 33°32' W 118°16'1223.6
2018-Jul-12 22:01N 33°21' W 118°19'1 3.0
2018-Jul-12 21:31N 33°22' W 118°20'910.7
2018-Jul-12 20:39N 33°27' W 118°30'218.0
2018-Jul-12 20:31N 33°29' W 118°28'1224.3
2018-Jul-12 20:01N 33°38' W 118°19'713.8
2018-Jul-12 19:30N 33°45' W 118°17'0 0.3
2018-Jul-12 19:00N 33°45' W 118°16'0 0.0
2018-Jul-12 18:30N 33°45' W 118°16'0 0.0
2018-Jul-12 18:00N 33°45' W 118°16'1 2.7
2018-Jul-12 17:30N 33°44' W 118°16'1121.9
2018-Jul-12 17:00N 33°33' W 118°16'1224.3
2018-Jul-12 16:30N 33°21' W 118°19'5 9.2
2018-Jul-12 16:01N 33°25' W 118°18'1224.3
2018-Jul-12 15:30N 33°37' W 118°16'815.0
2018-Jul-12 15:00N 33°45' W 118°17'0 0.5
2018-Jul-12 14:30N 33°45' W 118°16'0 0.0
2018-Jul-12 14:01N 33°45' W 118°16'0 0.0
2018-Jul-12 13:31N 33°45' W 118°16'0 0.0
2018-Jul-12 13:00N 33°45' W 118°16'0 0.0
2018-Jul-12 12:30N 33°45' W 118°16'0 0.0
2018-Jul-12 12:01N 33°45' W 118°16'0 0.0
2018-Jul-12 11:30N 33°45' W 118°16'0 0.0
2018-Jul-11 19:59N 33°45' W 118°16'0 0.0
2018-Jul-11 19:30N 33°45' W 118°16'0 0.0
2018-Jul-11 19:00N 33°45' W 118°16'0 0.0
2018-Jul-11 18:30N 33°45' W 118°16'0 0.0
2018-Jul-11 18:00N 33°45' W 118°16'0 0.0
2018-Jul-11 17:30N 33°45' W 118°16'0 0.0
2018-Jul-11 17:00N 33°45' W 118°16'0 0.0
2018-Jul-11 16:30N 33°45' W 118°16'0 0.0
2018-Jul-11 04:30N 33°45' W 118°16'0 0.0
2018-Jul-11 04:00N 33°45' W 118°16'0 0.0
2018-Jul-11 03:30N 33°45' W 118°16'2 4.2
2018-Jul-11 03:01N 33°43' W 118°16'1223.7
2018-Jul-11 02:31N 33°31' W 118°17'1121.3
2018-Jul-11 02:01N 33°21' W 118°19'0 0.0
2018-Jul-11 01:31N 33°21' W 118°19'713.4
2018-Jul-11 01:01N 33°27' W 118°18'1325.9
2018-Jul-11 00:30N 33°40' W 118°15'5 9.7
2018-Jul-11 00:00N 33°45' W 118°16'0 0.0
2018-Jul-10 23:30N 33°45' W 118°16'2 3.5
2018-Jul-10 23:01N 33°43' W 118°16'1223.0
2018-Jul-10 22:30N 33°32' W 118°17'1121.9
2018-Jul-10 22:00N 33°21' W 118°19'2 3.5
2018-Jul-10 21:31N 33°22' W 118°20'918.0
2018-Jul-10 20:59N 33°27' W 118°30'4 7.3
2018-Jul-10 20:31N 33°29' W 118°27'1325.3
2018-Jul-10 20:01N 33°39' W 118°18'611.5
2018-Jul-10 19:30N 33°45' W 118°16'0 0.0
2018-Jul-10 19:01N 33°45' W 118°16'1 2.5
2018-Jul-10 18:30N 33°44' W 118°16'1019.8
2018-Jul-10 18:00N 33°35' W 118°22'1010.4
2018-Jul-10 17:02N 33°27' W 118°29'121.0
2018-Jul-10 17:00N 33°27' W 118°28'1020.0
2018-Jul-10 16:30N 33°21' W 118°19'612.3
2018-Jul-10 16:00N 33°27' W 118°18'1224.6
2018-Jul-10 15:31N 33°39' W 118°15'612.4
2018-Jul-10 15:00N 33°45' W 118°16'0 0.0
2018-Jul-10 14:30N 33°45' W 118°16'0 0.0
2018-Jul-10 14:00N 33°45' W 118°16'0 0.0
2018-Jul-10 13:30N 33°45' W 118°16'0 0.0
2018-Jul-10 13:00N 33°45' W 118°16'0 0.0
2018-Jul-10 12:30N 33°45' W 118°16'0 0.0
2018-Jul-10 12:00N 33°45' W 118°16'  

Dump ship's entire track history